sensor_id;sensor_type;location;lat;lon;timestamp;pressure;altitude;pressure_sealevel;temperature;humidity
64872;BME280;51351;51.450;6.614;2023-10-31T00:01:02;99389.81;;;11.35;89.66
64872;BME280;51351;51.450;6.614;2023-10-31T00:03:27;99406.69;;;11.32;90.31
64872;BME280;51351;51.450;6.614;2023-10-31T00:05:53;99411.16;;;11.24;89.58
64872;BME280;51351;51.450;6.614;2023-10-31T00:08:18;99394.81;;;11.22;89.61
64872;BME280;51351;51.450;6.614;2023-10-31T00:10:44;99417.50;;;11.21;89.34
64872;BME280;51351;51.450;6.614;2023-10-31T00:13:10;99428.31;;;11.18;88.81
64872;BME280;51351;51.450;6.614;2023-10-31T00:15:36;99425.84;;;11.17;89.13
64872;BME280;51351;51.450;6.614;2023-10-31T00:18:02;99435.53;;;11.16;89.81
64872;BME280;51351;51.450;6.614;2023-10-31T00:20:27;99438.31;;;11.15;90.33
64872;BME280;51351;51.450;6.614;2023-10-31T00:22:53;99454.94;;;11.14;89.91
64872;BME280;51351;51.450;6.614;2023-10-31T00:25:18;99456.94;;;11.12;89.84
64872;BME280;51351;51.450;6.614;2023-10-31T00:27:44;99463.00;;;11.12;90.02
64872;BME280;51351;51.450;6.614;2023-10-31T00:30:10;99482.09;;;11.13;90.11
64872;BME280;51351;51.450;6.614;2023-10-31T00:32:36;99492.88;;;11.10;90.05
64872;BME280;51351;51.450;6.614;2023-10-31T00:35:01;99500.25;;;11.06;89.82
64872;BME280;51351;51.450;6.614;2023-10-31T00:37:27;99508.25;;;11.05;89.98
64872;BME280;51351;51.450;6.614;2023-10-31T00:39:52;99516.78;;;10.99;88.84
64872;BME280;51351;51.450;6.614;2023-10-31T00:42:18;99522.16;;;10.97;89.13
64872;BME280;51351;51.450;6.614;2023-10-31T00:44:43;99524.66;;;10.91;88.65
64872;BME280;51351;51.450;6.614;2023-10-31T00:47:09;99525.78;;;10.88;88.58
64872;BME280;51351;51.450;6.614;2023-10-31T00:49:35;99526.13;;;10.85;87.55
64872;BME280;51351;51.450;6.614;2023-10-31T00:52:02;99526.81;;;10.79;87.37
64872;BME280;51351;51.450;6.614;2023-10-31T00:54:27;99522.88;;;10.75;86.79
64872;BME280;51351;51.450;6.614;2023-10-31T00:56:53;99530.09;;;10.73;87.55
64872;BME280;51351;51.450;6.614;2023-10-31T00:59:18;99537.09;;;10.73;87.62
64872;BME280;51351;51.450;6.614;2023-10-31T01:01:44;99538.09;;;10.72;87.20
64872;BME280;51351;51.450;6.614;2023-10-31T01:04:10;99539.03;;;10.71;88.08
64872;BME280;51351;51.450;6.614;2023-10-31T01:06:42;99549.69;;;10.69;87.28
64872;BME280;51351;51.450;6.614;2023-10-31T01:09:09;99557.16;;;10.72;87.73
64872;BME280;51351;51.450;6.614;2023-10-31T01:11:35;99562.38;;;10.72;88.16
64872;BME280;51351;51.450;6.614;2023-10-31T01:14:00;99571.03;;;10.73;88.32
64872;BME280;51351;51.450;6.614;2023-10-31T01:16:26;99567.59;;;10.72;87.66
64872;BME280;51351;51.450;6.614;2023-10-31T01:18:51;99581.66;;;10.71;87.54
64872;BME280;51351;51.450;6.614;2023-10-31T01:21:17;99581.50;;;10.73;88.33
64872;BME280;51351;51.450;6.614;2023-10-31T01:23:42;99578.06;;;10.72;87.95
64872;BME280;51351;51.450;6.614;2023-10-31T01:26:08;99589.31;;;10.73;88.47
64872;BME280;51351;51.450;6.614;2023-10-31T01:28:34;99589.31;;;10.73;88.47
64872;BME280;51351;51.450;6.614;2023-10-31T01:30:59;99593.72;;;10.72;88.50
64872;BME280;51351;51.450;6.614;2023-10-31T01:33:25;99589.31;;;10.73;88.73
64872;BME280;51351;51.450;6.614;2023-10-31T01:35:51;99593.41;;;10.75;88.88
64872;BME280;51351;51.450;6.614;2023-10-31T01:38:16;99595.84;;;10.77;88.59
64872;BME280;51351;51.450;6.614;2023-10-31T01:40:41;99598.63;;;10.75;88.53
64872;BME280;51351;51.450;6.614;2023-10-31T01:43:07;99593.56;;;10.74;88.45
64872;BME280;51351;51.450;6.614;2023-10-31T01:45:33;99595.38;;;10.73;88.32
64872;BME280;51351;51.450;6.614;2023-10-31T01:47:58;99590.94;;;10.74;88.62
64872;BME280;51351;51.450;6.614;2023-10-31T01:50:24;99596.19;;;10.74;88.34
64872;BME280;51351;51.450;6.614;2023-10-31T01:52:51;99598.63;;;10.75;88.59
64872;BME280;51351;51.450;6.614;2023-10-31T01:55:17;99598.16;;;10.72;88.38
64872;BME280;51351;51.450;6.614;2023-10-31T01:57:44;99606.78;;;10.72;87.82
64872;BME280;51351;51.450;6.614;2023-10-31T02:00:11;99608.44;;;10.73;88.52
64872;BME280;51351;51.450;6.614;2023-10-31T02:02:40;99617.72;;;10.76;88.72
64872;BME280;51351;51.450;6.614;2023-10-31T02:05:07;99616.91;;;10.75;88.59
64872;BME280;51351;51.450;6.614;2023-10-31T02:07:33;99624.56;;;10.77;88.74
64872;BME280;51351;51.450;6.614;2023-10-31T02:09:58;99619.69;;;10.74;89.04
64872;BME280;51351;51.450;6.614;2023-10-31T02:12:36;99611.38;;;10.70;89.08
64872;BME280;51351;51.450;6.614;2023-10-31T02:15:03;99607.31;;;10.68;89.15
64872;BME280;51351;51.450;6.614;2023-10-31T02:17:29;99602.41;;;10.65;89.42
64872;BME280;51351;51.450;6.614;2023-10-31T02:19:55;99603.38;;;10.64;89.51
64872;BME280;51351;51.450;6.614;2023-10-31T02:22:21;99604.53;;;10.61;89.69
64872;BME280;51351;51.450;6.614;2023-10-31T02:24:47;99608.28;;;10.59;90.10
64872;BME280;51351;51.450;6.614;2023-10-31T02:27:12;99607.47;;;10.58;89.98
64872;BME280;51351;51.450;6.614;2023-10-31T02:29:39;99605.00;;;10.57;90.20
64872;BME280;51351;51.450;6.614;2023-10-31T02:32:05;99608.44;;;10.57;90.21
64872;BME280;51351;51.450;6.614;2023-10-31T02:34:31;99611.06;;;10.57;90.21
64872;BME280;51351;51.450;6.614;2023-10-31T02:36:56;99612.69;;;10.58;90.16
64872;BME280;51351;51.450;6.614;2023-10-31T02:39:22;99617.91;;;10.58;89.88
64872;BME280;51351;51.450;6.614;2023-10-31T02:41:47;99608.44;;;10.57;90.10
64872;BME280;51351;51.450;6.614;2023-10-31T02:44:14;99609.28;;;10.58;90.46
64872;BME280;51351;51.450;6.614;2023-10-31T02:46:40;99614.50;;;10.58;90.68
64872;BME280;51351;51.450;6.614;2023-10-31T02:49:05;99610.91;;;10.59;90.47
64872;BME280;51351;51.450;6.614;2023-10-31T02:51:31;99616.13;;;10.59;90.58
64872;BME280;51351;51.450;6.614;2023-10-31T02:53:57;99617.91;;;10.58;90.75
64872;BME280;51351;51.450;6.614;2023-10-31T02:56:22;99609.28;;;10.58;90.62
64872;BME280;51351;51.450;6.614;2023-10-31T02:58:48;99614.31;;;10.59;90.27
64872;BME280;51351;51.450;6.614;2023-10-31T03:01:14;99617.56;;;10.61;90.40
64872;BME280;51351;51.450;6.614;2023-10-31T03:03:39;99615.13;;;10.60;90.15
64872;BME280;51351;51.450;6.614;2023-10-31T03:06:05;99621.81;;;10.62;90.24
64872;BME280;51351;51.450;6.614;2023-10-31T03:08:31;99621.66;;;10.64;90.29
64872;BME280;51351;51.450;6.614;2023-10-31T03:10:56;99624.25;;;10.64;90.45
64872;BME280;51351;51.450;6.614;2023-10-31T03:13:22;99621.66;;;10.64;90.44
64872;BME280;51351;51.450;6.614;2023-10-31T03:15:48;99627.53;;;10.66;90.48
64872;BME280;51351;51.450;6.614;2023-10-31T03:18:14;99623.94;;;10.67;90.33
64872;BME280;51351;51.450;6.614;2023-10-31T03:20:40;99624.09;;;10.65;90.41
64872;BME280;51351;51.450;6.614;2023-10-31T03:23:06;99618.25;;;10.63;90.94
64872;BME280;51351;51.450;6.614;2023-10-31T03:25:31;99622.81;;;10.61;91.03
64872;BME280;51351;51.450;6.614;2023-10-31T03:27:57;99622.97;;;10.60;90.82
64872;BME280;51351;51.450;6.614;2023-10-31T03:30:23;99619.72;;;10.58;91.04
64872;BME280;51351;51.450;6.614;2023-10-31T03:32:48;99628.66;;;10.55;91.12
64872;BME280;51351;51.450;6.614;2023-10-31T03:35:14;99634.72;;;10.56;91.15
64872;BME280;51351;51.450;6.614;2023-10-31T03:37:40;99631.13;;;10.57;91.44
64872;BME280;51351;51.450;6.614;2023-10-31T03:40:08;99637.50;;;10.54;91.34
64872;BME280;51351;51.450;6.614;2023-10-31T03:42:34;99640.94;;;10.55;91.29
64872;BME280;51351;51.450;6.614;2023-10-31T03:45:01;99641.72;;;10.55;91.28
64872;BME280;51351;51.450;6.614;2023-10-31T03:47:27;99642.72;;;10.54;91.47
64872;BME280;51351;51.450;6.614;2023-10-31T03:49:52;99645.16;;;10.56;91.35
64872;BME280;51351;51.450;6.614;2023-10-31T03:52:18;99654.63;;;10.57;91.43
64872;BME280;51351;51.450;6.614;2023-10-31T03:54:45;99660.84;;;10.56;91.37
64872;BME280;51351;51.450;6.614;2023-10-31T03:57:10;99662.63;;;10.55;91.19
64872;BME280;51351;51.450;6.614;2023-10-31T03:59:39;99661.66;;;10.56;91.04
64872;BME280;51351;51.450;6.614;2023-10-31T04:02:05;99670.28;;;10.57;91.46
64872;BME280;51351;51.450;6.614;2023-10-31T04:04:30;99660.00;;;10.55;91.20
64872;BME280;51351;51.450;6.614;2023-10-31T04:06:56;99666.88;;;10.56;91.35
64872;BME280;51351;51.450;6.614;2023-10-31T04:09:21;99666.22;;;10.54;91.17
64872;BME280;51351;51.450;6.614;2023-10-31T04:11:47;99675.66;;;10.55;91.25
64872;BME280;51351;51.450;6.614;2023-10-31T04:14:12;99680.09;;;10.55;91.17
64872;BME280;51351;51.450;6.614;2023-10-31T04:16:41;99681.72;;;10.56;91.46
64872;BME280;51351;51.450;6.614;2023-10-31T04:19:12;99688.56;;;10.57;91.62
64872;BME280;51351;51.450;6.614;2023-10-31T04:21:38;99687.94;;;10.55;91.58
64872;BME280;51351;51.450;6.614;2023-10-31T04:24:04;99702.63;;;10.56;91.66
64872;BME280;51351;51.450;6.614;2023-10-31T04:26:30;99693.16;;;10.55;91.66
64872;BME280;51351;51.450;6.614;2023-10-31T04:28:55;99696.56;;;10.55;91.46
64872;BME280;51351;51.450;6.614;2023-10-31T04:31:21;99702.63;;;10.56;91.58
64872;BME280;51351;51.450;6.614;2023-10-31T04:33:46;99704.22;;;10.57;91.54
64872;BME280;51351;51.450;6.614;2023-10-31T04:36:12;99706.84;;;10.57;91.39
64872;BME280;51351;51.450;6.614;2023-10-31T04:38:37;99714.53;;;10.58;91.26
64872;BME280;51351;51.450;6.614;2023-10-31T04:41:08;99707.50;;;10.59;91.51
64872;BME280;51351;51.450;6.614;2023-10-31T04:43:34;99716.16;;;10.59;91.71
64872;BME280;51351;51.450;6.614;2023-10-31T04:46:00;99717.13;;;10.58;91.30
64872;BME280;51351;51.450;6.614;2023-10-31T04:48:26;99718.75;;;10.59;91.33
64872;BME280;51351;51.450;6.614;2023-10-31T04:50:51;99729.03;;;10.61;91.34
64872;BME280;51351;51.450;6.614;2023-10-31T04:53:17;99723.66;;;10.62;91.37
64872;BME280;51351;51.450;6.614;2023-10-31T04:55:42;99728.09;;;10.62;91.19
64872;BME280;51351;51.450;6.614;2023-10-31T04:58:08;99727.25;;;10.61;91.24
64872;BME280;51351;51.450;6.614;2023-10-31T05:00:33;99730.69;;;10.62;91.51
64872;BME280;51351;51.450;6.614;2023-10-31T05:02:58;99731.34;;;10.64;91.42
64872;BME280;51351;51.450;6.614;2023-10-31T05:05:26;99733.94;;;10.64;90.85
64872;BME280;51351;51.450;6.614;2023-10-31T05:07:52;99736.88;;;10.61;90.90
64872;BME280;51351;51.450;6.614;2023-10-31T05:10:17;99740.97;;;10.63;91.28
64872;BME280;51351;51.450;6.614;2023-10-31T05:12:43;99747.00;;;10.64;91.26
64872;BME280;51351;51.450;6.614;2023-10-31T05:15:08;99755.66;;;10.64;90.96
64872;BME280;51351;51.450;6.614;2023-10-31T05:17:34;99754.84;;;10.64;90.95
64872;BME280;51351;51.450;6.614;2023-10-31T05:20:00;99752.22;;;10.64;91.18
64872;BME280;51351;51.450;6.614;2023-10-31T05:22:25;99758.28;;;10.64;90.80
64872;BME280;51351;51.450;6.614;2023-10-31T05:24:50;99756.66;;;10.63;90.68
64872;BME280;51351;51.450;6.614;2023-10-31T05:27:16;99749.78;;;10.62;90.47
64872;BME280;51351;51.450;6.614;2023-10-31T05:29:42;99752.53;;;10.61;90.58
64872;BME280;51351;51.450;6.614;2023-10-31T05:32:07;99763.16;;;10.59;90.51
64872;BME280;51351;51.450;6.614;2023-10-31T05:34:33;99771.16;;;10.58;90.64
64872;BME280;51351;51.450;6.614;2023-10-31T05:36:58;99766.91;;;10.57;90.83
64872;BME280;51351;51.450;6.614;2023-10-31T05:39:24;99770.50;;;10.56;90.54
64872;BME280;51351;51.450;6.614;2023-10-31T05:41:49;99774.75;;;10.57;90.70
64872;BME280;51351;51.450;6.614;2023-10-31T05:44:15;99779.00;;;10.58;90.61
64872;BME280;51351;51.450;6.614;2023-10-31T05:46:40;99775.56;;;10.57;90.19
64872;BME280;51351;51.450;6.614;2023-10-31T05:49:07;99779.00;;;10.58;90.48
64872;BME280;51351;51.450;6.614;2023-10-31T05:51:32;99778.34;;;10.56;90.06
64872;BME280;51351;51.450;6.614;2023-10-31T05:54:00;99776.41;;;10.58;90.59
64872;BME280;51351;51.450;6.614;2023-10-31T05:56:26;99784.22;;;10.58;90.51
64872;BME280;51351;51.450;6.614;2023-10-31T05:58:51;99776.56;;;10.56;90.26
64872;BME280;51351;51.450;6.614;2023-10-31T06:01:17;99798.41;;;10.55;90.41
64872;BME280;51351;51.450;6.614;2023-10-31T06:03:43;99799.38;;;10.54;90.39
64872;BME280;51351;51.450;6.614;2023-10-31T06:06:10;99805.59;;;10.53;90.48
64872;BME280;51351;51.450;6.614;2023-10-31T06:08:35;99809.97;;;10.53;90.51
64872;BME280;51351;51.450;6.614;2023-10-31T06:11:03;99814.22;;;10.54;90.81
64872;BME280;51351;51.450;6.614;2023-10-31T06:13:29;99812.59;;;10.53;90.60
64872;BME280;51351;51.450;6.614;2023-10-31T06:15:56;99815.22;;;10.53;90.47
64872;BME280;51351;51.450;6.614;2023-10-31T06:18:23;99823.72;;;10.55;90.47
64872;BME280;51351;51.450;6.614;2023-10-31T06:20:48;99822.88;;;10.54;90.66
64872;BME280;51351;51.450;6.614;2023-10-31T06:23:14;99829.56;;;10.57;90.44
64872;BME280;51351;51.450;6.614;2023-10-31T06:25:39;99838.25;;;10.57;90.45
64872;BME280;51351;51.450;6.614;2023-10-31T06:28:05;99844.28;;;10.58;90.52
64872;BME280;51351;51.450;6.614;2023-10-31T06:30:30;99834.78;;;10.57;90.37
64872;BME280;51351;51.450;6.614;2023-10-31T06:32:56;99840.53;;;10.60;90.38
64872;BME280;51351;51.450;6.614;2023-10-31T06:35:23;99846.56;;;10.61;90.25
64872;BME280;51351;51.450;6.614;2023-10-31T06:37:50;99838.09;;;10.59;90.38
64872;BME280;51351;51.450;6.614;2023-10-31T06:40:16;99844.94;;;10.60;90.06
64872;BME280;51351;51.450;6.614;2023-10-31T06:42:41;99844.09;;;10.59;89.36
64872;BME280;51351;51.450;6.614;2023-10-31T06:45:07;99848.53;;;10.59;89.98
64872;BME280;51351;51.450;6.614;2023-10-31T06:47:33;99836.47;;;10.58;89.90
64872;BME280;51351;51.450;6.614;2023-10-31T06:49:58;99854.72;;;10.58;89.76
64872;BME280;51351;51.450;6.614;2023-10-31T06:52:24;99851.13;;;10.59;90.07
64872;BME280;51351;51.450;6.614;2023-10-31T06:54:49;99860.59;;;10.60;90.07
64872;BME280;51351;51.450;6.614;2023-10-31T06:57:14;99861.44;;;10.60;89.81
64872;BME280;51351;51.450;6.614;2023-10-31T06:59:41;99862.91;;;10.63;90.02
64872;BME280;51351;51.450;6.614;2023-10-31T07:02:07;99860.13;;;10.64;90.06
64872;BME280;51351;51.450;6.614;2023-10-31T07:04:32;99866.03;;;10.66;90.31
64872;BME280;51351;51.450;6.614;2023-10-31T07:06:58;99873.34;;;10.71;90.23
64872;BME280;51351;51.450;6.614;2023-10-31T07:09:24;99871.41;;;10.73;90.04
64872;BME280;51351;51.450;6.614;2023-10-31T07:11:51;99880.09;;;10.73;90.31
64872;BME280;51351;51.450;6.614;2023-10-31T07:14:16;99890.38;;;10.75;90.30
64872;BME280;51351;51.450;6.614;2023-10-31T07:16:42;99893.63;;;10.77;90.37
64872;BME280;51351;51.450;6.614;2023-10-31T07:19:12;99882.22;;;10.78;90.42
64872;BME280;51351;51.450;6.614;2023-10-31T07:21:37;99887.59;;;10.76;89.78
64872;BME280;51351;51.450;6.614;2023-10-31T07:24:03;99894.94;;;10.81;89.83
64872;BME280;51351;51.450;6.614;2023-10-31T07:26:28;99893.66;;;10.85;89.72
64872;BME280;51351;51.450;6.614;2023-10-31T07:28:54;99900.50;;;10.86;89.65
64872;BME280;51351;51.450;6.614;2023-10-31T07:31:20;99909.81;;;10.88;89.68
64872;BME280;51351;51.450;6.614;2023-10-31T07:33:45;99913.09;;;10.90;89.50
64872;BME280;51351;51.450;6.614;2023-10-31T07:36:11;99919.31;;;10.89;89.23
64872;BME280;51351;51.450;6.614;2023-10-31T07:38:37;99916.19;;;10.94;89.36
64872;BME280;51351;51.450;6.614;2023-10-31T07:41:02;99917.69;;;10.96;89.46
64872;BME280;51351;51.450;6.614;2023-10-31T07:43:28;99924.41;;;10.99;89.28
64872;BME280;51351;51.450;6.614;2023-10-31T07:45:53;99924.25;;;11.00;89.50
64872;BME280;51351;51.450;6.614;2023-10-31T07:48:19;99932.06;;;11.00;88.81
64872;BME280;51351;51.450;6.614;2023-10-31T07:50:44;99928.47;;;11.01;88.76
64872;BME280;51351;51.450;6.614;2023-10-31T07:53:10;99926.53;;;11.03;88.91
64872;BME280;51351;51.450;6.614;2023-10-31T07:55:35;99930.31;;;11.09;88.96
64872;BME280;51351;51.450;6.614;2023-10-31T07:58:00;99940.91;;;11.07;88.43
64872;BME280;51351;51.450;6.614;2023-10-31T08:00:26;99933.75;;;11.09;88.14
64872;BME280;51351;51.450;6.614;2023-10-31T08:02:52;99934.53;;;11.10;88.32
64872;BME280;51351;51.450;6.614;2023-10-31T08:05:17;99936.03;;;11.12;88.10
64872;BME280;51351;51.450;6.614;2023-10-31T08:07:43;99930.63;;;11.14;88.09
64872;BME280;51351;51.450;6.614;2023-10-31T08:10:09;99944.38;;;11.16;88.27
64872;BME280;51351;51.450;6.614;2023-10-31T08:12:35;99939.97;;;11.16;87.78
64872;BME280;51351;51.450;6.614;2023-10-31T08:15:01;99947.66;;;11.26;87.80
64872;BME280;51351;51.450;6.614;2023-10-31T08:17:27;99935.28;;;11.44;87.27
64872;BME280;51351;51.450;6.614;2023-10-31T08:19:52;99935.81;;;11.63;86.22
64872;BME280;51351;51.450;6.614;2023-10-31T08:22:18;99927.97;;;11.79;86.25
64872;BME280;51351;51.450;6.614;2023-10-31T08:24:43;99927.78;;;11.97;85.35
64872;BME280;51351;51.450;6.614;2023-10-31T08:27:08;99933.66;;;12.07;85.25
64872;BME280;51351;51.450;6.614;2023-10-31T08:29:35;99931.47;;;12.43;85.42
64872;BME280;51351;51.450;6.614;2023-10-31T08:32:01;99939.78;;;12.54;83.18
64872;BME280;51351;51.450;6.614;2023-10-31T08:34:26;99941.56;;;12.54;84.82
64872;BME280;51351;51.450;6.614;2023-10-31T08:36:52;99945.72;;;12.40;83.72
64872;BME280;51351;51.450;6.614;2023-10-31T08:39:18;99947.00;;;12.36;84.44
64872;BME280;51351;51.450;6.614;2023-10-31T08:41:54;99947.72;;;12.30;84.54
64872;BME280;51351;51.450;6.614;2023-10-31T08:44:20;99950.31;;;12.22;84.23
64872;BME280;51351;51.450;6.614;2023-10-31T08:46:45;99945.75;;;12.08;83.52
64872;BME280;51351;51.450;6.614;2023-10-31T08:49:15;99951.03;;;12.00;84.00
64872;BME280;51351;51.450;6.614;2023-10-31T08:51:41;99961.00;;;11.96;84.39
64872;BME280;51351;51.450;6.614;2023-10-31T08:54:07;99955.56;;;12.22;85.30
64872;BME280;51351;51.450;6.614;2023-10-31T08:56:32;99962.13;;;12.18;84.19
64872;BME280;51351;51.450;6.614;2023-10-31T08:58:58;99967.34;;;12.34;84.99
64872;BME280;51351;51.450;6.614;2023-10-31T09:01:23;99971.22;;;12.46;82.05
64872;BME280;51351;51.450;6.614;2023-10-31T09:03:49;99980.06;;;12.53;83.50
64872;BME280;51351;51.450;6.614;2023-10-31T09:06:15;99973.53;;;12.41;83.13
64872;BME280;51351;51.450;6.614;2023-10-31T09:08:40;99980.44;;;12.18;82.80
64872;BME280;51351;51.450;6.614;2023-10-31T09:11:06;99986.50;;;12.02;83.48
64872;BME280;51351;51.450;6.614;2023-10-31T09:13:32;99996.66;;;11.89;83.86
64872;BME280;51351;51.450;6.614;2023-10-31T09:15:58;100005.00;;;11.77;83.94
64872;BME280;51351;51.450;6.614;2023-10-31T09:18:24;100001.88;;;11.65;84.01
64872;BME280;51351;51.450;6.614;2023-10-31T09:20:50;100010.19;;;11.69;84.51
64872;BME280;51351;51.450;6.614;2023-10-31T09:23:15;100023.16;;;11.78;84.72
64872;BME280;51351;51.450;6.614;2023-10-31T09:25:42;100024.63;;;11.97;84.65
64872;BME280;51351;51.450;6.614;2023-10-31T09:28:08;100035.44;;;12.18;84.03
64872;BME280;51351;51.450;6.614;2023-10-31T09:30:33;100036.41;;;12.25;84.02
64872;BME280;51351;51.450;6.614;2023-10-31T09:32:59;100045.06;;;12.34;82.89
64872;BME280;51351;51.450;6.614;2023-10-31T09:35:24;100052.44;;;12.30;82.23
64872;BME280;51351;51.450;6.614;2023-10-31T09:37:51;100043.13;;;12.36;83.40
64872;BME280;51351;51.450;6.614;2023-10-31T09:40:17;100050.16;;;12.43;83.11
64872;BME280;51351;51.450;6.614;2023-10-31T09:42:44;100056.03;;;12.53;82.98
64872;BME280;51351;51.450;6.614;2023-10-31T09:45:10;100058.28;;;12.56;82.97
64872;BME280;51351;51.450;6.614;2023-10-31T09:47:36;100064.38;;;12.65;81.91
64872;BME280;51351;51.450;6.614;2023-10-31T09:50:01;100069.13;;;12.61;82.29
64872;BME280;51351;51.450;6.614;2023-10-31T09:52:27;100070.09;;;12.60;82.66
64872;BME280;51351;51.450;6.614;2023-10-31T09:54:53;100070.91;;;12.61;81.90
64872;BME280;51351;51.450;6.614;2023-10-31T09:57:18;100069.94;;;12.54;81.97
64872;BME280;51351;51.450;6.614;2023-10-31T09:59:44;100083.22;;;12.44;81.32
64872;BME280;51351;51.450;6.614;2023-10-31T10:02:10;100087.97;;;12.33;81.79
64872;BME280;51351;51.450;6.614;2023-10-31T10:04:37;100087.94;;;12.25;82.32
64872;BME280;51351;51.450;6.614;2023-10-31T10:07:03;100093.03;;;12.26;82.82
64872;BME280;51351;51.450;6.614;2023-10-31T10:09:29;100092.69;;;12.21;81.81
64872;BME280;51351;51.450;6.614;2023-10-31T10:11:56;100102.69;;;12.26;82.49
64872;BME280;51351;51.450;6.614;2023-10-31T10:14:25;100100.22;;;12.32;82.43
64872;BME280;51351;51.450;6.614;2023-10-31T10:16:54;100119.06;;;12.44;82.73
64872;BME280;51351;51.450;6.614;2023-10-31T10:19:22;100111.69;;;12.55;82.60
64872;BME280;51351;51.450;6.614;2023-10-31T10:21:54;100116.13;;;12.63;82.14
64872;BME280;51351;51.450;6.614;2023-10-31T10:24:21;100119.22;;;12.74;81.73
64872;BME280;51351;51.450;6.614;2023-10-31T10:26:46;100122.81;;;12.81;80.33
64872;BME280;51351;51.450;6.614;2023-10-31T10:29:12;100119.88;;;13.00;81.24
64872;BME280;51351;51.450;6.614;2023-10-31T10:31:38;100124.56;;;13.13;80.04
64872;BME280;51351;51.450;6.614;2023-10-31T10:34:08;100127.34;;;13.19;79.64
64872;BME280;51351;51.450;6.614;2023-10-31T10:36:33;100132.25;;;13.22;79.44
64872;BME280;51351;51.450;6.614;2023-10-31T10:38:59;100126.16;;;13.30;79.66
64872;BME280;51351;51.450;6.614;2023-10-31T10:41:26;100135.19;;;13.27;79.30
64872;BME280;51351;51.450;6.614;2023-10-31T10:43:58;100140.63;;;13.18;77.21
64872;BME280;51351;51.450;6.614;2023-10-31T10:46:28;100143.91;;;13.20;79.46
64872;BME280;51351;51.450;6.614;2023-10-31T10:48:58;100150.44;;;13.24;78.60
64872;BME280;51351;51.450;6.614;2023-10-31T10:51:29;100151.94;;;13.26;78.21
64872;BME280;51351;51.450;6.614;2023-10-31T10:54:05;100147.63;;;13.33;78.15
64872;BME280;51351;51.450;6.614;2023-10-31T10:56:38;100148.09;;;13.45;78.70
64872;BME280;51351;51.450;6.614;2023-10-31T11:01:39;100148.19;;;13.59;78.34
64872;BME280;51351;51.450;6.614;2023-10-31T11:04:07;100148.72;;;13.47;75.98
64872;BME280;51351;51.450;6.614;2023-10-31T11:06:33;100147.25;;;13.52;77.43
64872;BME280;51351;51.450;6.614;2023-10-31T11:09:00;100155.75;;;13.62;75.83
64872;BME280;51351;51.450;6.614;2023-10-31T11:11:26;100154.00;;;13.77;76.47
64872;BME280;51351;51.450;6.614;2023-10-31T11:13:53;100148.44;;;13.80;75.41
64872;BME280;51351;51.450;6.614;2023-10-31T11:16:39;100148.81;;;13.69;73.96
64872;BME280;51351;51.450;6.614;2023-10-31T11:19:07;100143.34;;;13.79;76.61
64872;BME280;51351;51.450;6.614;2023-10-31T11:21:34;100142.75;;;13.69;75.28
64872;BME280;51351;51.450;6.614;2023-10-31T11:24:00;100141.13;;;13.68;75.44
64872;BME280;51351;51.450;6.614;2023-10-31T11:26:27;100151.13;;;13.64;74.65
64872;BME280;51351;51.450;6.614;2023-10-31T11:29:03;100147.19;;;13.60;73.20
64872;BME280;51351;51.450;6.614;2023-10-31T11:31:30;100147.44;;;13.81;74.12
64872;BME280;51351;51.450;6.614;2023-10-31T11:33:57;100151.47;;;13.92;73.72
64872;BME280;51351;51.450;6.614;2023-10-31T11:36:22;100152.25;;;14.00;73.92
64872;BME280;51351;51.450;6.614;2023-10-31T11:38:48;100154.97;;;14.15;73.20
64872;BME280;51351;51.450;6.614;2023-10-31T11:41:13;100154.13;;;14.22;73.02
64872;BME280;51351;51.450;6.614;2023-10-31T11:46:04;100157.84;;;13.97;72.68
64872;BME280;51351;51.450;6.614;2023-10-31T11:48:48;100156.84;;;13.68;72.03
64872;BME280;51351;51.450;6.614;2023-10-31T11:51:13;100150.22;;;13.49;71.95
64872;BME280;51351;51.450;6.614;2023-10-31T11:53:39;100160.88;;;13.48;73.79
64872;BME280;51351;51.450;6.614;2023-10-31T11:56:05;100157.25;;;13.49;73.29
64872;BME280;51351;51.450;6.614;2023-10-31T11:58:31;100165.41;;;13.54;74.06
64872;BME280;51351;51.450;6.614;2023-10-31T12:01:04;100159.03;;;13.56;72.87
64872;BME280;51351;51.450;6.614;2023-10-31T12:03:40;100162.16;;;13.52;72.22
64872;BME280;51351;51.450;6.614;2023-10-31T12:06:07;100168.09;;;13.46;72.57
64872;BME280;51351;51.450;6.614;2023-10-31T12:11:21;100174.31;;;13.45;71.99
64872;BME280;51351;51.450;6.614;2023-10-31T12:13:54;100168.03;;;13.54;72.18
64872;BME280;51351;51.450;6.614;2023-10-31T12:16:27;100170.16;;;13.58;73.24
64872;BME280;51351;51.450;6.614;2023-10-31T12:18:56;100166.91;;;13.56;72.24
64872;BME280;51351;51.450;6.614;2023-10-31T12:24:09;100165.63;;;13.83;73.85
64872;BME280;51351;51.450;6.614;2023-10-31T12:26:35;100162.19;;;14.13;72.86
64872;BME280;51351;51.450;6.614;2023-10-31T12:29:12;100171.25;;;14.41;71.67
64872;BME280;51351;51.450;6.614;2023-10-31T12:31:46;100180.72;;;14.65;71.17
64872;BME280;51351;51.450;6.614;2023-10-31T12:34:16;100174.78;;;14.71;70.88
64872;BME280;51351;51.450;6.614;2023-10-31T12:36:43;100179.53;;;14.53;69.60
64872;BME280;51351;51.450;6.614;2023-10-31T12:39:12;100186.72;;;14.59;71.00
64872;BME280;51351;51.450;6.614;2023-10-31T12:41:41;100181.47;;;14.59;68.91
64872;BME280;51351;51.450;6.614;2023-10-31T12:44:07;100188.63;;;14.65;68.60
64872;BME280;51351;51.450;6.614;2023-10-31T12:46:39;100187.88;;;14.56;68.37
64872;BME280;51351;51.450;6.614;2023-10-31T12:49:11;100181.34;;;14.52;69.22
64872;BME280;51351;51.450;6.614;2023-10-31T12:51:38;100181.06;;;14.47;69.83
64872;BME280;51351;51.450;6.614;2023-10-31T12:54:04;100172.75;;;14.58;71.07
64872;BME280;51351;51.450;6.614;2023-10-31T12:56:40;100174.69;;;14.64;69.71
64872;BME280;51351;51.450;6.614;2023-10-31T12:59:10;100177.34;;;14.56;69.98
64872;BME280;51351;51.450;6.614;2023-10-31T13:01:44;100181.22;;;14.46;69.19
64872;BME280;51351;51.450;6.614;2023-10-31T13:04:10;100183.84;;;14.46;70.46